Time;durP1;ratioP1;P1;durP2;ratioP2;P2;SDS_P1;SDS_P2;PMS_P1;PMS_P2;Temp;Humidity;BMP_temperature;BMP_pressure;BME280_temperature;BME280_humidity;BME280_pressure;Samples;Min_cycle;Max_cycle;Signal;HPM_P1;HPM_P2
2021/07/06 02:56:31;;;;;;;68.55;9.20;;;;;;;;;;5089789;22;20064;31
2021/07/06 05:07:35;;;;;;;13.35;11.95;;;;;;;;;;5064380;22;20135;-69
2021/07/06 05:10:14;;;;;;;14.40;12.15;;;;;;;;;;5089009;28;20032;-69
2021/07/06 05:12:40;;;;;;;17.92;12.38;;;;;;;;;;5095026;28;20454;-69
2021/07/06 05:15:17;;;;;;;17.45;12.77;;;;;;;;;;5094282;28;20024;-69
2021/07/06 05:17:42;;;;;;;15.15;12.10;;;;;;;;;;5094248;28;20474;-69
2021/07/06 05:20:08;;;;;;;14.48;12.40;;;;;;;;;;5082902;28;20116;-69
2021/07/06 05:22:37;;;;;;;12.38;10.98;;;;;;;;;;5073718;28;20074;-70
2021/07/06 05:25:03;;;;;;;13.07;9.88;;;;;;;;;;5077918;28;20387;-70
2021/07/06 05:27:28;;;;;;;11.35;8.70;;;;;;;;;;5074032;28;20418;-70
2021/07/06 05:30:06;;;;;;;8.48;6.75;;;;;;;;;;5073621;28;20093;-70
2021/07/06 05:32:32;;;;;;;7.50;5.47;;;;;;;;;;5071120;28;20020;-69
2021/07/06 05:34:57;;;;;;;6.20;4.88;;;;;;;;;;5075690;28;20068;-69
2021/07/06 05:37:23;;;;;;;11.70;5.95;;;;;;;;;;5093566;28;20020;-69
2021/07/06 05:39:49;;;;;;;7.15;4.72;;;;;;;;;;5089764;28;20025;-69
2021/07/06 05:42:16;;;;;;;6.10;4.85;;;;;;;;;;5073414;28;20021;-70
2021/07/06 05:44:45;;;;;;;8.45;5.15;;;;;;;;;;5073416;28;20513;-70
2021/07/06 05:47:11;;;;;;;5.63;4.40;;;;;;;;;;5073536;28;20028;-70
2021/07/06 05:49:37;;;;;;;5.68;5.00;;;;;;;;;;5075557;28;20028;-70
2021/07/06 05:52:02;;;;;;;5.95;4.60;;;;;;;;;;5057611;28;20471;-70
2021/07/06 05:54:28;;;;;;;7.10;4.75;;;;;;;;;;5087472;28;20032;-71
2021/07/06 05:57:03;;;;;;;6.28;4.95;;;;;;;;;;5073392;28;20540;-70
2021/07/06 05:59:28;;;;;;;6.95;5.47;;;;;;;;;;5073166;28;20093;-70
2021/07/06 06:01:57;;;;;;;6.50;5.43;;;;;;;;;;5084449;28;20472;-70
2021/07/06 06:04:22;;;;;;;8.20;5.60;;;;;;;;;;5073417;28;20027;-77
2021/07/06 06:06:57;;;;;;;9.23;7.00;;;;;;;;;;5055420;28;20032;-77
2021/07/06 06:09:23;;;;;;;8.85;6.72;;;;;;;;;;5079931;28;20075;-77
2021/07/06 06:11:49;;;;;;;9.63;6.57;;;;;;;;;;5088247;28;20023;-77
2021/07/06 06:14:18;;;;;;;9.25;6.72;;;;;;;;;;5070132;28;20437;-78
2021/07/06 06:16:44;;;;;;;10.20;7.40;;;;;;;;;;5075687;28;20089;-78
2021/07/06 06:19:09;;;;;;;8.48;7.57;;;;;;;;;;5093770;28;20024;-77
2021/07/06 06:21:41;;;;;;;9.80;7.43;;;;;;;;;;5060504;28;20135;-77
2021/07/06 06:24:06;;;;;;;8.40;7.60;;;;;;;;;;5091504;28;20104;-77
2021/07/06 06:26:38;;;;;;;14.65;8.00;;;;;;;;;;5093000;28;20102;-77
2021/07/06 06:29:03;;;;;;;10.00;6.97;;;;;;;;;;5088011;28;20025;-77
2021/07/06 06:31:29;;;;;;;8.45;6.90;;;;;;;;;;5080202;28;20348;-77
2021/07/06 06:34:11;;;;;;;8.90;6.05;;;;;;;;;;5092666;28;20035;-78
2021/07/06 06:36:36;;;;;;;7.07;4.88;;;;;;;;;;5088557;28;20514;-78
2021/07/06 06:39:05;;;;;;;6.38;4.70;;;;;;;;;;5090474;28;20033;-80
2021/07/06 06:41:30;;;;;;;8.35;5.28;;;;;;;;;;5077509;28;20143;-80
2021/07/06 06:43:56;;;;;;;6.70;4.72;;;;;;;;;;5077321;28;20455;-79
2021/07/06 06:46:22;;;;;;;7.85;4.47;;;;;;;;;;5078004;28;20032;-79
2021/07/06 06:49:06;;;;;;;6.18;4.75;;;;;;;;;;5094170;28;20464;-79
2021/07/06 06:51:32;;;;;;;5.43;4.35;;;;;;;;;;5076994;28;20032;-79
2021/07/06 06:54:34;;;;;;;13.52;4.82;;;;;;;;;;5093187;28;20111;-79
2021/07/06 06:57:01;;;;;;;6.88;4.57;;;;;;;;;;5088215;28;20024;-78
2021/07/06 06:59:29;;;;;;;7.97;4.80;;;;;;;;;;5094289;28;20038;-75
2021/07/06 07:04:39;;;;;;;5.50;4.28;;;;;;;;;;5093370;28;20701;-75
2021/07/06 07:07:14;;;;;;;6.30;4.15;;;;;;;;;;5088260;28;20106;-74
2021/07/06 07:09:41;;;;;;;6.72;4.60;;;;;;;;;;5076175;28;20148;-76
2021/07/06 07:12:08;;;;;;;5.43;4.50;;;;;;;;;;5094128;28;20102;-77
2021/07/06 07:14:49;;;;;;;4.47;4.05;;;;;;;;;;5094449;28;20536;-76
2021/07/06 07:17:15;;;;;;;7.07;5.70;;;;;;;;;;5094429;28;20028;-76
2021/07/06 07:19:41;;;;;;;5.68;3.85;;;;;;;;;;5092549;28;20390;-74
2021/07/06 07:22:07;;;;;;;5.93;4.03;;;;;;;;;;5096919;28;20020;-73
2021/07/06 07:24:46;;;;;;;6.50;3.40;;;;;;;;;;5090008;28;20024;-84
2021/07/06 07:27:12;;;;;;;4.57;3.42;;;;;;;;;;5096827;28;20039;-81
2021/07/06 07:29:41;;;;;;;5.70;3.60;;;;;;;;;;5082529;28;20048;-78
2021/07/06 07:32:07;;;;;;;4.65;3.60;;;;;;;;;;5098715;28;20085;-80
2021/07/06 07:34:39;;;;;;;4.40;3.72;;;;;;;;;;5080654;28;20036;-81
2021/07/06 07:37:05;;;;;;;5.72;3.55;;;;;;;;;;5079005;28;20028;-80
2021/07/06 07:39:33;;;;;;;5.00;3.70;;;;;;;;;;5080303;28;20035;-80
2021/07/06 07:42:00;;;;;;;4.82;3.30;;;;;;;;;;5080077;28;20135;-80
2021/07/06 07:44:25;;;;;;;4.72;3.40;;;;;;;;;;5091615;28;20024;-81
2021/07/06 07:46:53;;;;;;;5.25;3.70;;;;;;;;;;5097641;28;20027;-71
2021/07/06 07:49:18;;;;;;;5.88;3.65;;;;;;;;;;5094746;28;20055;-71
2021/07/06 07:51:44;;;;;;;5.25;3.28;;;;;;;;;;5089577;28;20543;-73
2021/07/06 07:54:10;;;;;;;5.03;2.80;;;;;;;;;;5089394;28;20119;-73
2021/07/06 07:56:36;;;;;;;3.97;2.88;;;;;;;;;;5087773;28;20056;-81
2021/07/06 07:59:01;;;;;;;3.65;3.08;;;;;;;;;;5075428;28;20032;-75
2021/07/06 08:01:30;;;;;;;4.63;2.97;;;;;;;;;;5076054;28;20479;-75
2021/07/06 08:03:55;;;;;;;4.95;2.90;;;;;;;;;;5084805;28;20024;-75
2021/07/06 08:06:35;;;;;;;5.70;3.45;;;;;;;;;;5086736;28;20051;-79
2021/07/06 08:09:03;;;;;;;4.15;3.28;;;;;;;;;;5092861;28;20379;-76
2021/07/06 08:11:28;;;;;;;6.78;3.75;;;;;;;;;;5080478;28;20039;-77
2021/07/06 08:13:56;;;;;;;4.10;3.13;;;;;;;;;;5076592;28;20032;-76
2021/07/06 08:16:21;;;;;;;4.75;3.03;;;;;;;;;;5088014;28;20028;-75
2021/07/06 08:19:40;;;;;;;3.17;2.70;;;;;;;;;;5076745;28;20125;-77
2021/07/06 08:22:05;;;;;;;3.92;2.50;;;;;;;;;;5095451;28;20032;-75
2021/07/06 08:24:33;;;;;;;5.43;2.70;;;;;;;;;;5093434;28;20377;-75
2021/07/06 08:26:58;;;;;;;3.55;2.67;;;;;;;;;;5093643;28;20027;-77
2021/07/06 08:29:27;;;;;;;8.13;3.35;;;;;;;;;;5069256;28;20028;-74
2021/07/06 08:31:53;;;;;;;5.28;2.85;;;;;;;;;;5075317;28;20471;-75
2021/07/06 08:34:19;;;;;;;5.13;2.60;;;;;;;;;;5093807;28;20103;-74
2021/07/06 08:36:46;;;;;;;5.05;2.72;;;;;;;;;;5090903;28;20032;-75
2021/07/06 08:39:12;;;;;;;3.88;2.78;;;;;;;;;;5092681;28;20051;-73
2021/07/06 08:41:57;;;;;;;3.65;2.50;;;;;;;;;;5094734;28;20072;-73
2021/07/06 08:44:23;;;;;;;3.95;2.85;;;;;;;;;;5093332;28;20425;-77
2021/07/06 08:46:58;;;;;;;4.05;2.67;;;;;;;;;;5089966;28;20028;-75
2021/07/06 08:49:26;;;;;;;4.55;3.00;;;;;;;;;;5079305;28;20056;-75
2021/07/06 08:55:15;;;;;;;5.93;2.88;;;;;;;;;;5095107;28;20057;-76
2021/07/06 08:57:42;;;;;;;4.18;3.33;;;;;;;;;;5085239;28;20478;-74
2021/07/06 09:00:12;;;;;;;4.18;2.70;;;;;;;;;;5087536;28;20028;-74
2021/07/06 09:02:38;;;;;;;5.18;2.85;;;;;;;;;;5091691;28;20046;-75
2021/07/06 09:05:20;;;;;;;4.07;2.90;;;;;;;;;;5078592;28;20455;-75
2021/07/06 09:07:53;;;;;;;5.65;3.25;;;;;;;;;;5077519;28;20470;-76
2021/07/06 09:10:22;;;;;;;3.53;2.90;;;;;;;;;;5074876;28;20032;-77
2021/07/06 09:12:51;;;;;;;3.45;2.75;;;;;;;;;;5095644;28;20054;-74
2021/07/06 09:15:31;;;;;;;3.40;2.88;;;;;;;;;;5114774;28;20031;-77
2021/07/06 09:18:06;;;;;;;6.32;2.83;;;;;;;;;;5094413;28;20028;-75
2021/07/06 09:20:32;;;;;;;3.80;2.78;;;;;;;;;;5113681;28;20084;-76
2021/07/06 09:23:20;;;;;;;4.30;2.95;;;;;;;;;;5113183;28;20066;-74
2021/07/06 09:29:08;;;;;;;3.53;3.00;;;;;;;;;;5092085;28;20057;-74
2021/07/06 09:31:36;;;;;;;5.57;3.00;;;;;;;;;;5094261;28;20028;-74
2021/07/06 09:34:10;;;;;;;4.38;3.00;;;;;;;;;;5094246;28;20024;-73
2021/07/06 09:36:59;;;;;;;4.20;2.95;;;;;;;;;;5094150;28;20088;-74
2021/07/06 09:39:26;;;;;;;3.10;2.70;;;;;;;;;;5078037;28;20044;-74
2021/07/06 09:42:08;;;;;;;3.60;2.60;;;;;;;;;;5081822;28;20115;-74
2021/07/06 09:44:34;;;;;;;4.75;3.08;;;;;;;;;;5078122;28;20403;-74
2021/07/06 09:47:03;;;;;;;4.93;2.60;;;;;;;;;;5073547;28;20020;-73
2021/07/06 09:49:34;;;;;;;3.40;2.70;;;;;;;;;;5080944;28;20039;-74
2021/07/06 09:52:21;;;;;;;3.70;2.63;;;;;;;;;;5072853;28;20060;-75
2021/07/06 09:54:49;;;;;;;3.75;2.60;;;;;;;;;;5081212;28;20028;-76
2021/07/06 10:00:37;;;;;;;4.20;2.55;;;;;;;;;;5081906;28;20062;-75
2021/07/06 10:03:03;;;;;;;6.45;3.17;;;;;;;;;;5077573;28;20013;-75
2021/07/06 10:05:29;;;;;;;4.68;2.72;;;;;;;;;;5091243;28;20063;-75
2021/07/06 10:07:55;;;;;;;4.30;2.65;;;;;;;;;;5079237;28;20048;-72
2021/07/06 10:10:22;;;;;;;4.95;2.92;;;;;;;;;;5073748;28;20028;-72
2021/07/06 10:12:49;;;;;;;5.70;2.70;;;;;;;;;;5089223;28;20066;-72
2021/07/06 10:15:17;;;;;;;4.72;2.90;;;;;;;;;;5087596;28;20029;-74
2021/07/06 10:17:43;;;;;;;4.78;2.50;;;;;;;;;;5081575;28;20447;-71
2021/07/06 10:20:11;;;;;;;4.20;2.90;;;;;;;;;;5073670;28;20025;-71
2021/07/06 10:22:53;;;;;;;4.18;2.55;;;;;;;;;;5080623;28;20028;-72
2021/07/06 10:25:40;;;;;;;5.60;2.78;;;;;;;;;;5073305;28;20033;-72
2021/07/06 10:28:13;;;;;;;3.75;2.60;;;;;;;;;;5079728;28;20062;-72
2021/07/06 10:30:42;;;;;;;3.88;2.70;;;;;;;;;;5093594;28;20032;-71
2021/07/06 10:33:33;;;;;;;4.22;2.63;;;;;;;;;;5088525;28;20028;-71
2021/07/06 10:35:59;;;;;;;5.13;2.70;;;;;;;;;;5079884;28;20035;-70
2021/07/06 10:38:28;;;;;;;3.72;2.72;;;;;;;;;;5087326;28;20032;-71
2021/07/06 10:40:56;;;;;;;8.18;2.70;;;;;;;;;;5074644;28;20031;-74
2021/07/06 10:43:41;;;;;;;4.78;2.97;;;;;;;;;;5069289;28;20032;-71
2021/07/06 10:46:30;;;;;;;4.25;2.92;;;;;;;;;;5093185;28;20046;-73
2021/07/06 10:49:02;;;;;;;4.00;2.65;;;;;;;;;;5092614;28;20016;-72
2021/07/06 10:51:34;;;;;;;8.20;2.67;;;;;;;;;;5093051;28;20107;-71
2021/07/06 10:54:38;;;;;;;3.72;2.65;;;;;;;;;;5086823;28;20043;-70
2021/07/06 10:57:06;;;;;;;3.65;2.63;;;;;;;;;;5080605;28;20019;-71
2021/07/06 10:59:39;;;;;;;4.25;3.05;;;;;;;;;;5073053;28;20052;-71
2021/07/06 11:02:06;;;;;;;3.58;2.67;;;;;;;;;;5078941;28;20413;-70
2021/07/06 11:04:43;;;;;;;2.90;2.60;;;;;;;;;;5088696;28;20056;-75
2021/07/06 11:07:30;;;;;;;4.90;2.50;;;;;;;;;;5085813;28;20382;-73
2021/07/06 11:09:56;;;;;;;4.65;2.63;;;;;;;;;;5074953;28;20411;-70
2021/07/06 11:12:22;;;;;;;3.88;2.60;;;;;;;;;;5088094;28;20020;-70
2021/07/06 11:14:56;;;;;;;4.97;2.83;;;;;;;;;;5092390;28;20024;-70
2021/07/06 11:17:34;;;;;;;4.00;2.80;;;;;;;;;;5087539;28;20059;-71
2021/07/06 11:20:07;;;;;;;3.53;2.70;;;;;;;;;;5087612;28;20077;-70
2021/07/06 11:22:57;;;;;;;3.20;2.53;;;;;;;;;;5092925;28;20028;-71
2021/07/06 11:25:39;;;;;;;5.28;2.70;;;;;;;;;;5095468;28;20066;-71
2021/07/06 11:28:37;;;;;;;3.53;2.33;;;;;;;;;;5086181;28;20550;-69
2021/07/06 11:31:04;;;;;;;3.40;2.33;;;;;;;;;;5095842;28;20024;-71
2021/07/06 11:33:35;;;;;;;4.90;2.72;;;;;;;;;;5095796;28;20432;-71
2021/07/06 11:36:16;;;;;;;5.35;2.50;;;;;;;;;;5091441;28;20024;-72
2021/07/06 11:38:47;;;;;;;3.33;2.30;;;;;;;;;;5070981;28;20036;-71
2021/07/06 11:41:17;;;;;;;3.55;2.65;;;;;;;;;;5093778;28;20039;-71
2021/07/06 11:43:43;;;;;;;3.42;2.30;;;;;;;;;;5079342;28;20035;-70
2021/07/06 11:46:24;;;;;;;4.32;2.50;;;;;;;;;;5094279;28;20475;-70
2021/07/06 11:48:54;;;;;;;3.58;2.60;;;;;;;;;;5092485;28;20028;-71
2021/07/06 11:51:26;;;;;;;4.50;2.60;;;;;;;;;;5080069;28;20052;-73
2021/07/06 11:53:59;;;;;;;4.97;2.85;;;;;;;;;;5065717;28;20024;-74
2021/07/06 11:56:26;;;;;;;3.92;2.75;;;;;;;;;;5093605;28;20030;-75
2021/07/06 11:58:52;;;;;;;3.33;2.60;;;;;;;;;;5083906;28;20507;-76
2021/07/06 12:01:18;;;;;;;4.35;2.60;;;;;;;;;;5093606;28;20022;-76
2021/07/06 12:03:44;;;;;;;4.78;2.88;;;;;;;;;;5094882;28;20487;-74
2021/07/06 12:06:17;;;;;;;3.85;2.70;;;;;;;;;;5088818;28;20027;-74
2021/07/06 12:08:44;;;;;;;3.08;2.22;;;;;;;;;;5094778;28;20479;-76
2021/07/06 12:11:29;;;;;;;5.45;2.65;;;;;;;;;;5077870;28;20061;-73
2021/07/06 12:14:00;;;;;;;3.10;2.30;;;;;;;;;;5084181;28;20028;-76
2021/07/06 12:16:28;;;;;;;3.45;2.15;;;;;;;;;;5065044;28;20028;-77
2021/07/06 12:19:01;;;;;;;4.07;2.40;;;;;;;;;;5080432;28;20425;-74
2021/07/06 12:21:42;;;;;;;3.80;2.40;;;;;;;;;;5075434;28;20467;-75
2021/07/06 12:24:12;;;;;;;3.45;2.35;;;;;;;;;;5075211;28;20032;-74
2021/07/06 12:26:56;;;;;;;4.07;2.58;;;;;;;;;;5083100;28;20028;-73
2021/07/06 12:29:35;;;;;;;4.38;2.60;;;;;;;;;;5091787;28;20032;-76
2021/07/06 12:32:11;;;;;;;4.50;2.70;;;;;;;;;;5074772;28;20027;-74
2021/07/06 12:34:57;;;;;;;4.97;2.45;;;;;;;;;;5094984;28;20035;-74
2021/07/06 12:37:24;;;;;;;2.90;2.60;;;;;;;;;;5093070;28;20032;-74
2021/07/06 12:39:52;;;;;;;3.25;2.35;;;;;;;;;;5075049;28;20032;-74
2021/07/06 12:42:24;;;;;;;4.05;2.90;;;;;;;;;;5085945;28;20045;-73
2021/07/06 12:44:49;;;;;;;4.78;2.63;;;;;;;;;;5095110;28;20107;-74
2021/07/06 12:48:06;;;;;;;3.17;2.75;;;;;;;;;;5086264;28;20104;-75
2021/07/06 12:50:34;;;;;;;4.03;2.60;;;;;;;;;;5078865;28;20094;-75
2021/07/06 12:53:05;;;;;;;4.95;2.90;;;;;;;;;;5083861;28;20031;-75
2021/07/06 12:55:33;;;;;;;5.68;2.90;;;;;;;;;;5079988;28;20502;-75
2021/07/06 12:58:10;;;;;;;3.85;2.70;;;;;;;;;;5075337;28;20028;-75
2021/07/06 13:00:39;;;;;;;4.40;2.88;;;;;;;;;;5094890;28;20042;-76
2021/07/06 13:03:17;;;;;;;3.45;2.80;;;;;;;;;;5101088;28;20023;-73
2021/07/06 13:06:05;;;;;;;3.58;2.90;;;;;;;;;;5085923;28;20475;-75
2021/07/06 13:08:34;;;;;;;4.03;3.17;;;;;;;;;;5074294;28;20029;-75
2021/07/06 13:11:05;;;;;;;4.90;3.15;;;;;;;;;;5091994;28;20034;-75
2021/07/06 13:13:32;;;;;;;4.50;2.88;;;;;;;;;;5075370;28;20032;-75
2021/07/06 13:16:25;;;;;;;2.90;2.50;;;;;;;;;;5088332;28;20031;-75
2021/07/06 13:18:51;;;;;;;3.55;2.80;;;;;;;;;;5094319;28;20043;-76
2021/07/06 13:21:19;;;;;;;5.32;3.40;;;;;;;;;;5094295;28;20016;-74
2021/07/06 13:23:49;;;;;;;4.05;3.10;;;;;;;;;;5100155;28;20024;-76
2021/07/06 13:26:14;;;;;;;3.85;2.92;;;;;;;;;;5079424;28;20111;-73
2021/07/06 13:28:40;;;;;;;5.50;3.20;;;;;;;;;;5074086;28;20549;-74
2021/07/06 13:31:06;;;;;;;5.63;3.10;;;;;;;;;;5081353;28;20032;-74
2021/07/06 13:33:35;;;;;;;4.55;2.83;;;;;;;;;;5094026;28;20032;-74
2021/07/06 13:36:02;;;;;;;4.63;3.03;;;;;;;;;;5066437;28;20111;-76
2021/07/06 13:38:27;;;;;;;4.20;3.15;;;;;;;;;;5087317;28;20032;-76
2021/07/06 13:40:54;;;;;;;5.03;2.75;;;;;;;;;;5094169;28;20077;-76
2021/07/06 13:43:22;;;;;;;4.50;3.10;;;;;;;;;;5092797;28;20070;-73
2021/07/06 13:45:48;;;;;;;3.30;2.70;;;;;;;;;;5090763;28;20059;-77
2021/07/06 13:48:22;;;;;;;5.95;3.63;;;;;;;;;;5091214;28;20081;-76
2021/07/06 13:50:47;;;;;;;5.28;3.55;;;;;;;;;;5074188;28;20027;-75
2021/07/06 13:53:16;;;;;;;4.65;3.17;;;;;;;;;;5092842;28;20107;-74
2021/07/06 13:55:42;;;;;;;3.30;2.97;;;;;;;;;;5086252;28;20024;-75
2021/07/06 13:58:14;;;;;;;3.30;2.60;;;;;;;;;;5086112;28;20020;-73
2021/07/06 14:00:40;;;;;;;5.55;2.80;;;;;;;;;;5078526;28;20043;-74
2021/07/06 14:03:08;;;;;;;4.22;2.75;;;;;;;;;;5073292;28;20028;-78
2021/07/06 14:05:34;;;;;;;4.13;2.60;;;;;;;;;;5079242;28;20016;-77
2021/07/06 14:08:04;;;;;;;5.03;2.70;;;;;;;;;;5087186;28;20044;-74
2021/07/06 14:10:30;;;;;;;2.60;2.40;;;;;;;;;;5042750;28;20032;-73
2021/07/06 14:13:01;;;;;;;4.03;2.50;;;;;;;;;;5052981;28;20036;-73
2021/07/06 14:15:27;;;;;;;4.63;2.45;;;;;;;;;;5057315;28;20029;-74
2021/07/06 14:17:54;;;;;;;3.70;2.85;;;;;;;;;;5053466;28;20029;-76
2021/07/06 14:20:24;;;;;;;6.50;2.70;;;;;;;;;;5055818;28;20382;-75
2021/07/06 14:22:49;;;;;;;4.20;2.70;;;;;;;;;;5071445;28;20037;-77
2021/07/06 14:25:25;;;;;;;4.85;2.60;;;;;;;;;;5070798;28;20345;-76
2021/07/06 14:27:50;;;;;;;3.00;2.70;;;;;;;;;;5070236;28;20483;-77
2021/07/06 14:30:30;;;;;;;3.60;2.70;;;;;;;;;;5068467;28;20020;-75
2021/07/06 14:32:56;;;;;;;3.78;2.65;;;;;;;;;;5073293;28;20099;-75
2021/07/06 14:35:23;;;;;;;3.30;2.55;;;;;;;;;;5069299;28;20148;-75
2021/07/06 14:37:49;;;;;;;4.75;3.25;;;;;;;;;;5057139;28;20020;-76
2021/07/06 14:40:14;;;;;;;3.40;2.70;;;;;;;;;;5069563;28;20478;-82
2021/07/06 14:42:58;;;;;;;3.55;2.90;;;;;;;;;;5057902;28;20487;-85
2021/07/06 14:45:24;;;;;;;5.53;3.10;;;;;;;;;;5066448;28;20029;-82
2021/07/06 14:47:50;;;;;;;4.32;3.03;;;;;;;;;;5069664;28;20027;-82
2021/07/06 14:50:16;;;;;;;5.20;3.00;;;;;;;;;;5084246;28;20043;-82
2021/07/06 14:52:43;;;;;;;3.65;2.72;;;;;;;;;;5073266;28;20511;-75
2021/07/06 14:55:09;;;;;;;2.85;2.55;;;;;;;;;;5071166;28;20032;-75
2021/07/06 14:57:35;;;;;;;3.10;2.63;;;;;;;;;;5074961;28;20056;-78
2021/07/06 15:00:00;;;;;;;4.28;2.90;;;;;;;;;;5068836;28;20427;-78
2021/07/06 15:02:27;;;;;;;5.93;3.08;;;;;;;;;;5075043;28;20112;-75
2021/07/06 15:04:53;;;;;;;3.50;3.20;;;;;;;;;;5072406;28;20025;-75
2021/07/06 15:07:19;;;;;;;3.55;2.97;;;;;;;;;;5075010;28;20038;-75
2021/07/06 15:09:46;;;;;;;3.28;2.60;;;;;;;;;;5071891;28;20036;-75
2021/07/06 15:12:12;;;;;;;3.22;2.92;;;;;;;;;;5056949;28;20025;-75
2021/07/06 15:14:38;;;;;;;3.75;3.13;;;;;;;;;;5057276;28;20024;-75
2021/07/06 15:17:04;;;;;;;4.13;3.17;;;;;;;;;;5065080;28;20091;-75
2021/07/06 15:19:31;;;;;;;4.50;3.00;;;;;;;;;;5059050;28;20025;-74
2021/07/06 15:21:57;;;;;;;3.80;3.25;;;;;;;;;;5066112;28;20028;-75
2021/07/06 15:24:22;;;;;;;3.50;3.00;;;;;;;;;;5069677;28;20540;-74
2021/07/06 15:26:48;;;;;;;3.60;3.10;;;;;;;;;;5060060;28;20024;-74
2021/07/06 15:29:13;;;;;;;3.47;2.97;;;;;;;;;;5074345;28;20046;-74
2021/07/06 15:31:39;;;;;;;3.08;2.58;;;;;;;;;;5056993;28;20039;-74
2021/07/06 15:34:05;;;;;;;3.35;2.70;;;;;;;;;;5061921;28;20071;-74
2021/07/06 15:36:31;;;;;;;4.45;3.13;;;;;;;;;;5065473;28;20047;-73
2021/07/06 15:38:56;;;;;;;3.50;3.20;;;;;;;;;;5055099;28;20028;-73
2021/07/06 15:41:22;;;;;;;3.90;3.30;;;;;;;;;;5056162;28;20029;-73
2021/07/06 15:43:49;;;;;;;4.20;2.80;;;;;;;;;;5056154;28;20033;-73
2021/07/06 15:46:15;;;;;;;4.95;3.35;;;;;;;;;;5066109;28;20406;-73
2021/07/06 15:48:40;;;;;;;4.88;3.63;;;;;;;;;;5059997;28;20029;-73
2021/07/06 15:51:07;;;;;;;4.22;3.45;;;;;;;;;;5071957;28;20020;-74
2021/07/06 15:53:33;;;;;;;4.45;3.15;;;;;;;;;;5063500;28;20063;-73
2021/07/06 15:55:58;;;;;;;4.40;3.58;;;;;;;;;;5054123;28;20084;-73
2021/07/06 15:58:24;;;;;;;5.38;3.60;;;;;;;;;;5067179;28;20035;-75
2021/07/06 16:00:49;;;;;;;4.85;3.47;;;;;;;;;;5073582;28;20036;-74
2021/07/06 16:03:16;;;;;;;7.95;3.70;;;;;;;;;;5072006;28;20046;-74
2021/07/06 16:05:41;;;;;;;4.47;3.83;;;;;;;;;;5059329;28;20448;-74
2021/07/06 16:08:07;;;;;;;4.32;3.40;;;;;;;;;;5063301;28;20072;-74
2021/07/06 16:10:32;;;;;;;5.20;3.60;;;;;;;;;;5073367;28;20026;-74
2021/07/06 16:13:01;;;;;;;6.75;3.30;;;;;;;;;;5055959;28;20024;-74
2021/07/06 16:15:28;;;;;;;4.95;3.63;;;;;;;;;;5072945;28;20380;-73
2021/07/06 16:17:53;;;;;;;3.95;3.10;;;;;;;;;;5063469;28;20028;-74
2021/07/06 16:20:25;;;;;;;3.65;2.90;;;;;;;;;;5073827;28;20024;-74
2021/07/06 16:23:04;;;;;;;4.35;3.33;;;;;;;;;;5073161;28;20029;-74
2021/07/06 16:25:31;;;;;;;5.03;3.25;;;;;;;;;;5074620;28;20056;-74
2021/07/06 16:27:56;;;;;;;3.50;3.08;;;;;;;;;;5064567;28;20059;-77
2021/07/06 16:30:23;;;;;;;3.75;3.10;;;;;;;;;;5065401;28;20052;-74
2021/07/06 16:32:49;;;;;;;3.80;2.97;;;;;;;;;;5057688;28;20028;-76
2021/07/06 16:35:16;;;;;;;4.95;3.38;;;;;;;;;;5047648;28;20047;-75
2021/07/06 16:37:46;;;;;;;4.82;3.33;;;;;;;;;;5062495;28;20089;-75
2021/07/06 16:40:13;;;;;;;4.05;3.40;;;;;;;;;;5060589;28;20074;-75
2021/07/06 16:42:40;;;;;;;4.43;3.20;;;;;;;;;;5073230;28;20070;-75
2021/07/06 16:45:07;;;;;;;5.80;3.08;;;;;;;;;;5073967;28;20039;-75
2021/07/06 16:47:34;;;;;;;4.72;3.25;;;;;;;;;;5071171;28;20025;-75
2021/07/06 16:49:59;;;;;;;3.70;3.20;;;;;;;;;;5063925;28;20025;-74
2021/07/06 17:58:30;;;;;;;6.70;4.40;;;;;;;;;;5072413;28;20032;-74
2021/07/06 18:00:56;;;;;;;4.63;4.10;;;;;;;;;;5072022;28;20375;-74
2021/07/06 18:03:22;;;;;;;5.18;4.68;;;;;;;;;;5071701;28;20028;-74
2021/07/06 18:06:03;;;;;;;6.68;4.90;;;;;;;;;;5064783;28;20471;-74
2021/07/06 18:08:30;;;;;;;5.30;4.53;;;;;;;;;;5070152;28;20056;-74
2021/07/06 18:10:56;;;;;;;6.05;4.63;;;;;;;;;;5072141;28;20036;-74
2021/07/06 18:13:23;;;;;;;5.20;4.70;;;;;;;;;;5057486;28;20032;-74
2021/07/06 18:15:49;;;;;;;6.32;5.32;;;;;;;;;;5062635;28;20115;-74
2021/07/06 18:18:15;;;;;;;5.80;5.20;;;;;;;;;;5060778;28;20021;-74
2021/07/06 18:20:43;;;;;;;5.95;5.35;;;;;;;;;;5068887;28;20077;-74
2021/07/06 18:23:09;;;;;;;5.72;5.22;;;;;;;;;;5072497;28;20078;-74
2021/07/06 18:25:42;;;;;;;6.45;5.35;;;;;;;;;;5055317;28;20032;-74
2021/07/06 18:28:09;;;;;;;6.32;5.53;;;;;;;;;;5072605;28;20066;-74
2021/07/06 18:30:36;;;;;;;6.55;5.57;;;;;;;;;;5058114;28;20040;-74
2021/07/06 18:33:02;;;;;;;6.43;5.82;;;;;;;;;;5056839;28;20408;-73
2021/07/06 18:35:28;;;;;;;7.38;6.10;;;;;;;;;;5057716;28;20024;-74
2021/07/06 18:37:57;;;;;;;8.98;6.18;;;;;;;;;;5066474;28;20029;-74
2021/07/06 18:40:32;;;;;;;6.75;5.68;;;;;;;;;;5070630;28;20024;-73
2021/07/06 18:42:59;;;;;;;5.93;5.32;;;;;;;;;;5074924;28;20418;-73
2021/07/06 18:45:25;;;;;;;5.88;5.25;;;;;;;;;;5075834;28;20021;-73
2021/07/06 18:47:58;;;;;;;5.82;5.30;;;;;;;;;;5070517;28;20528;-74
2021/07/06 18:50:24;;;;;;;6.03;5.43;;;;;;;;;;5068494;28;20036;-74
2021/07/06 18:52:52;;;;;;;5.88;5.30;;;;;;;;;;5056357;28;20017;-74
2021/07/06 18:55:17;;;;;;;7.03;5.65;;;;;;;;;;5068611;28;20514;-73
2021/07/06 18:57:43;;;;;;;5.47;4.97;;;;;;;;;;5067448;28;20117;-73
2021/07/06 19:00:10;;;;;;;5.78;5.18;;;;;;;;;;5074906;28;20043;-73
2021/07/06 19:02:40;;;;;;;5.78;5.13;;;;;;;;;;5066877;28;20078;-77
2021/07/06 19:05:18;;;;;;;6.82;5.07;;;;;;;;;;5067416;28;20038;-77
2021/07/06 19:07:46;;;;;;;5.40;4.90;;;;;;;;;;5074540;28;20572;-77
2021/07/06 19:10:14;;;;;;;5.43;4.93;;;;;;;;;;5075716;28;20059;-77
2021/07/06 19:12:40;;;;;;;8.00;5.03;;;;;;;;;;5073083;28;20498;-78
2021/07/06 19:15:06;;;;;;;10.65;5.20;;;;;;;;;;5071261;28;20024;-78
2021/07/06 19:17:32;;;;;;;6.57;5.60;;;;;;;;;;5058757;28;20020;-79
2021/07/06 19:19:57;;;;;;;6.10;5.50;;;;;;;;;;5055287;28;20710;-79
2021/07/06 19:22:23;;;;;;;6.55;5.72;;;;;;;;;;5060289;28;20067;-79
2021/07/06 19:24:51;;;;;;;12.35;5.80;;;;;;;;;;5068691;28;20115;-81
2021/07/06 19:27:19;;;;;;;7.05;5.80;;;;;;;;;;5067100;28;20452;-82
2021/07/06 19:32:33;;;;;;;7.10;6.40;;;;;;;;;;5072712;28;20436;-71
2021/07/06 19:35:03;;;;;;;6.68;6.05;;;;;;;;;;5071996;28;20036;-72
2021/07/06 19:37:30;;;;;;;7.75;6.93;;;;;;;;;;5072543;28;20063;-72
2021/07/06 19:39:57;;;;;;;8.02;6.93;;;;;;;;;;5066402;28;20025;-72
2021/07/06 19:42:23;;;;;;;7.45;6.75;;;;;;;;;;5056221;28;20052;-72
2021/07/06 19:44:49;;;;;;;7.65;6.85;;;;;;;;;;5068005;28;20031;-71
2021/07/06 19:47:15;;;;;;;8.63;7.25;;;;;;;;;;5066713;28;20107;-73
2021/07/06 19:49:41;;;;;;;7.80;7.05;;;;;;;;;;5074673;28;20464;-72
2021/07/06 19:52:08;;;;;;;7.60;6.82;;;;;;;;;;5069551;28;20029;-71
2021/07/06 19:54:37;;;;;;;8.05;7.25;;;;;;;;;;5066430;28;20047;-73
2021/07/06 19:57:04;;;;;;;9.00;8.07;;;;;;;;;;5054959;28;20033;-71
2021/07/06 19:59:36;;;;;;;8.35;7.53;;;;;;;;;;5054193;28;20029;-72
2021/07/06 20:02:02;;;;;;;8.48;7.68;;;;;;;;;;5059977;28;20043;-72
2021/07/06 20:04:30;;;;;;;8.88;7.97;;;;;;;;;;5064735;28;20070;-72
2021/07/06 20:06:57;;;;;;;10.27;8.63;;;;;;;;;;5063312;28;20033;-72
2021/07/06 20:09:23;;;;;;;9.18;8.13;;;;;;;;;;5067391;28;20044;-71
2021/07/06 20:11:48;;;;;;;10.07;8.80;;;;;;;;;;5071229;28;20036;-72
2021/07/06 20:14:14;;;;;;;9.73;8.45;;;;;;;;;;5074261;28;20421;-71
2021/07/06 20:16:39;;;;;;;9.60;8.43;;;;;;;;;;5064039;28;20052;-72
2021/07/06 20:19:05;;;;;;;10.88;8.93;;;;;;;;;;5054973;28;20032;-71
2021/07/06 20:21:30;;;;;;;11.40;9.10;;;;;;;;;;5060011;28;20501;-71
2021/07/06 20:23:57;;;;;;;13.38;9.63;;;;;;;;;;5070961;28;20116;-72
2021/07/06 20:26:22;;;;;;;11.02;9.30;;;;;;;;;;5070225;28;20028;-72
2021/07/06 20:28:48;;;;;;;10.32;9.25;;;;;;;;;;5054370;28;20074;-71
2021/07/06 20:31:13;;;;;;;10.27;9.27;;;;;;;;;;5054426;28;20676;-71
2021/07/06 20:33:39;;;;;;;10.48;9.48;;;;;;;;;;5070468;28;20422;-71
2021/07/06 20:36:04;;;;;;;10.02;9.02;;;;;;;;;;5061002;28;20048;-72
2021/07/06 20:38:30;;;;;;;10.52;9.52;;;;;;;;;;5055138;28;20029;-72
2021/07/06 20:40:55;;;;;;;10.23;9.13;;;;;;;;;;5066591;28;20083;-71
2021/07/06 20:43:21;;;;;;;10.57;9.30;;;;;;;;;;5071867;28;20024;-71
2021/07/06 20:45:46;;;;;;;10.90;9.80;;;;;;;;;;5072815;28;20028;-72
2021/07/06 20:48:12;;;;;;;10.45;9.23;;;;;;;;;;5073576;28;20346;-72
2021/07/06 20:50:37;;;;;;;11.05;9.93;;;;;;;;;;5067714;28;20760;-72
2021/07/06 20:53:03;;;;;;;11.10;9.48;;;;;;;;;;5057463;28;20033;-71
2021/07/06 20:55:31;;;;;;;11.32;9.32;;;;;;;;;;5066951;28;20108;-73
2021/07/06 20:57:58;;;;;;;11.25;8.88;;;;;;;;;;5059955;28;20028;-72
2021/07/06 21:00:26;;;;;;;10.63;9.35;;;;;;;;;;5057152;28;20028;-77
2021/07/06 21:02:53;;;;;;;11.35;9.73;;;;;;;;;;5074171;28;20060;-79
2021/07/06 21:05:21;;;;;;;12.05;9.82;;;;;;;;;;5058695;28;20054;-75
2021/07/06 21:07:47;;;;;;;10.00;8.90;;;;;;;;;;5053808;28;20033;-79
2021/07/06 21:10:13;;;;;;;13.70;10.00;;;;;;;;;;5053708;28;20028;-79
2021/07/06 21:12:39;;;;;;;11.25;9.73;;;;;;;;;;5053378;28;20021;-80
2021/07/06 21:15:05;;;;;;;11.43;10.23;;;;;;;;;;5068977;28;20127;-79
2021/07/06 21:17:31;;;;;;;12.88;9.82;;;;;;;;;;5066685;28;20031;-79
2021/07/06 21:19:56;;;;;;;11.57;10.35;;;;;;;;;;5051878;28;20475;-79